sensor_id;sensor_type;location;lat;lon;timestamp;pressure;altitude;pressure_sealevel;temperature;humidity
80566;BME280;69915;54.862;10.730;2023-07-29T00:00:31;100486.94;;;17.17;94.71
80566;BME280;69915;54.862;10.730;2023-07-29T00:02:57;100493.28;;;17.18;94.07
80566;BME280;69915;54.862;10.730;2023-07-29T00:05:23;100503.66;;;17.21;94.05
80566;BME280;69915;54.862;10.730;2023-07-29T00:07:48;100497.66;;;17.19;93.95
80566;BME280;69915;54.862;10.730;2023-07-29T00:10:14;100492.34;;;17.14;93.68
80566;BME280;69915;54.862;10.730;2023-07-29T00:12:39;100493.28;;;17.18;93.66
80566;BME280;69915;54.862;10.730;2023-07-29T00:15:05;100478.38;;;16.98;93.58
80566;BME280;69915;54.862;10.730;2023-07-29T00:17:31;100494.41;;;17.05;93.79
80566;BME280;69915;54.862;10.730;2023-07-29T00:19:56;100489.56;;;17.02;93.81
80566;BME280;69915;54.862;10.730;2023-07-29T00:22:21;100472.03;;;16.85;93.33
80566;BME280;69915;54.862;10.730;2023-07-29T00:24:52;100468.44;;;16.85;93.77
80566;BME280;69915;54.862;10.730;2023-07-29T00:27:19;100466.41;;;16.94;95.01
80566;BME280;69915;54.862;10.730;2023-07-29T00:29:45;100469.09;;;17.03;95.23
80566;BME280;69915;54.862;10.730;2023-07-29T00:32:10;100458.94;;;17.07;94.66
80566;BME280;69915;54.862;10.730;2023-07-29T00:34:36;100481.56;;;17.21;94.24
80566;BME280;69915;54.862;10.730;2023-07-29T00:37:01;100482.25;;;17.18;93.96
80566;BME280;69915;54.862;10.730;2023-07-29T00:39:26;100458.94;;;16.95;93.68
80566;BME280;69915;54.862;10.730;2023-07-29T00:41:52;100483.09;;;16.98;93.96
80566;BME280;69915;54.862;10.730;2023-07-29T00:44:17;100465.38;;;16.86;94.14
80566;BME280;69915;54.862;10.730;2023-07-29T00:46:45;100470.63;;;16.79;94.13
80566;BME280;69915;54.862;10.730;2023-07-29T00:49:11;100463.94;;;16.68;94.16
80566;BME280;69915;54.862;10.730;2023-07-29T00:51:36;100479.13;;;16.74;94.12
80566;BME280;69915;54.862;10.730;2023-07-29T00:54:02;100462.53;;;16.62;94.65
80566;BME280;69915;54.862;10.730;2023-07-29T00:56:28;100470.59;;;16.67;94.88
80566;BME280;69915;54.862;10.730;2023-07-29T00:58:54;100448.47;;;16.55;94.78
80566;BME280;69915;54.862;10.730;2023-07-29T01:01:24;100445.91;;;16.50;95.38
80566;BME280;69915;54.862;10.730;2023-07-29T01:03:50;100440.94;;;16.44;95.50
80566;BME280;69915;54.862;10.730;2023-07-29T01:09:02;100463.69;;;16.20;95.10
80566;BME280;69915;54.862;10.730;2023-07-29T01:11:48;100461.75;;;16.20;96.40
80566;BME280;69915;54.862;10.730;2023-07-29T01:17:31;100476.28;;;16.29;97.67
80566;BME280;69915;54.862;10.730;2023-07-29T01:20:09;100449.69;;;16.25;98.08
80566;BME280;69915;54.862;10.730;2023-07-29T01:22:36;100466.81;;;16.51;98.40
80566;BME280;69915;54.862;10.730;2023-07-29T01:25:02;100460.03;;;16.49;97.96
80566;BME280;69915;54.862;10.730;2023-07-29T01:27:29;100438.38;;;16.39;98.09
80566;BME280;69915;54.862;10.730;2023-07-29T01:29:56;100441.47;;;16.37;97.56
80566;BME280;69915;54.862;10.730;2023-07-29T01:32:29;100440.78;;;16.40;97.54
80566;BME280;69915;54.862;10.730;2023-07-29T01:35:23;100451.38;;;16.38;97.70
80566;BME280;69915;54.862;10.730;2023-07-29T01:37:54;100448.22;;;16.27;97.50
80566;BME280;69915;54.862;10.730;2023-07-29T01:40:23;100441.28;;;16.21;97.77
80566;BME280;69915;54.862;10.730;2023-07-29T01:42:51;100422.28;;;16.08;97.60
80566;BME280;69915;54.862;10.730;2023-07-29T01:45:16;100426.69;;;16.00;97.60
80566;BME280;69915;54.862;10.730;2023-07-29T01:47:42;100424.00;;;15.92;97.61
80566;BME280;69915;54.862;10.730;2023-07-29T01:50:08;100448.75;;;16.00;97.43
80566;BME280;69915;54.862;10.730;2023-07-29T01:52:34;100439.59;;;15.88;97.86
80566;BME280;69915;54.862;10.730;2023-07-29T01:55:00;100444.13;;;15.92;97.60
80566;BME280;69915;54.862;10.730;2023-07-29T01:57:26;100427.38;;;15.76;97.55
80566;BME280;69915;54.862;10.730;2023-07-29T01:59:51;100427.00;;;15.78;98.04
80566;BME280;69915;54.862;10.730;2023-07-29T02:02:17;100449.03;;;15.87;98.04
80566;BME280;69915;54.862;10.730;2023-07-29T02:04:42;100441.09;;;15.85;97.84
80566;BME280;69915;54.862;10.730;2023-07-29T02:07:07;100437.88;;;15.83;98.30
80566;BME280;69915;54.862;10.730;2023-07-29T02:09:33;100444.78;;;15.68;97.77
80566;BME280;69915;54.862;10.730;2023-07-29T02:11:58;100440.84;;;15.40;97.01
80566;BME280;69915;54.862;10.730;2023-07-29T02:14:24;100425.06;;;15.20;97.46
80566;BME280;69915;54.862;10.730;2023-07-29T02:16:49;100436.88;;;15.20;97.77
80566;BME280;69915;54.862;10.730;2023-07-29T02:19:15;100432.53;;;15.11;97.41
80566;BME280;69915;54.862;10.730;2023-07-29T02:21:41;100411.91;;;14.88;97.61
80566;BME280;69915;54.862;10.730;2023-07-29T02:24:06;100442.50;;;14.95;97.52
80566;BME280;69915;54.862;10.730;2023-07-29T02:26:31;100449.28;;;14.97;98.96
80566;BME280;69915;54.862;10.730;2023-07-29T02:28:57;100446.19;;;14.99;99.30
80566;BME280;69915;54.862;10.730;2023-07-29T02:31:24;100430.53;;;14.91;99.20
80566;BME280;69915;54.862;10.730;2023-07-29T02:33:50;100449.75;;;14.99;99.21
80566;BME280;69915;54.862;10.730;2023-07-29T02:36:16;100449.75;;;14.99;98.98
80566;BME280;69915;54.862;10.730;2023-07-29T02:38:42;100437.97;;;14.90;98.75
80566;BME280;69915;54.862;10.730;2023-07-29T02:41:09;100436.56;;;14.76;98.50
80566;BME280;69915;54.862;10.730;2023-07-29T02:43:37;100419.13;;;14.54;98.47
80566;BME280;69915;54.862;10.730;2023-07-29T02:46:03;100429.97;;;14.51;98.28
80566;BME280;69915;54.862;10.730;2023-07-29T02:48:28;100424.00;;;14.40;98.54
80566;BME280;69915;54.862;10.730;2023-07-29T02:50:54;100438.41;;;14.46;98.21
80566;BME280;69915;54.862;10.730;2023-07-29T02:53:21;100438.25;;;14.42;98.56
80566;BME280;69915;54.862;10.730;2023-07-29T02:55:47;100437.28;;;14.38;98.62
80566;BME280;69915;54.862;10.730;2023-07-29T02:58:12;100435.66;;;14.37;98.42
80566;BME280;69915;54.862;10.730;2023-07-29T03:00:38;100419.31;;;14.41;98.75
80566;BME280;69915;54.862;10.730;2023-07-29T03:03:07;100411.41;;;14.39;98.75
80566;BME280;69915;54.862;10.730;2023-07-29T03:05:32;100392.13;;;14.22;98.88
80566;BME280;69915;54.862;10.730;2023-07-29T03:07:58;100405.06;;;14.30;98.95
80566;BME280;69915;54.862;10.730;2023-07-29T03:10:23;100424.50;;;14.42;99.30
80566;BME280;69915;54.862;10.730;2023-07-29T03:12:49;100424.28;;;14.56;99.81
80566;BME280;69915;54.862;10.730;2023-07-29T03:15:14;100430.72;;;14.77;100.00
80566;BME280;69915;54.862;10.730;2023-07-29T03:17:40;100403.06;;;14.65;100.00
80566;BME280;69915;54.862;10.730;2023-07-29T03:20:06;100429.28;;;14.71;100.00
80566;BME280;69915;54.862;10.730;2023-07-29T03:22:31;100427.19;;;14.59;99.91
80566;BME280;69915;54.862;10.730;2023-07-29T03:24:57;100431.09;;;14.58;100.00
80566;BME280;69915;54.862;10.730;2023-07-29T03:27:22;100399.03;;;14.62;100.00
80566;BME280;69915;54.862;10.730;2023-07-29T03:29:48;100412.59;;;14.76;100.00
80566;BME280;69915;54.862;10.730;2023-07-29T03:32:13;100413.56;;;14.71;100.00
80566;BME280;69915;54.862;10.730;2023-07-29T03:34:38;100426.38;;;14.76;100.00
80566;BME280;69915;54.862;10.730;2023-07-29T03:37:05;100401.44;;;14.73;100.00
80566;BME280;69915;54.862;10.730;2023-07-29T03:39:31;100424.00;;;14.95;100.00
80566;BME280;69915;54.862;10.730;2023-07-29T03:41:58;100427.31;;;14.89;100.00
80566;BME280;69915;54.862;10.730;2023-07-29T03:44:23;100428.09;;;14.98;100.00
80566;BME280;69915;54.862;10.730;2023-07-29T03:46:49;100399.75;;;14.97;100.00
80566;BME280;69915;54.862;10.730;2023-07-29T03:49:14;100415.34;;;15.14;100.00
80566;BME280;69915;54.862;10.730;2023-07-29T03:51:40;100415.66;;;15.21;100.00
80566;BME280;69915;54.862;10.730;2023-07-29T03:54:06;100394.19;;;15.06;100.00
80566;BME280;69915;54.862;10.730;2023-07-29T03:56:31;100411.28;;;15.20;100.00
80566;BME280;69915;54.862;10.730;2023-07-29T03:59:05;100411.13;;;15.25;100.00
80566;BME280;69915;54.862;10.730;2023-07-29T04:01:31;100389.75;;;15.22;100.00
80566;BME280;69915;54.862;10.730;2023-07-29T04:03:57;100415.38;;;15.43;100.00
80566;BME280;69915;54.862;10.730;2023-07-29T04:06:23;100410.81;;;15.56;100.00
80566;BME280;69915;54.862;10.730;2023-07-29T04:08:49;100395.09;;;15.56;100.00
80566;BME280;69915;54.862;10.730;2023-07-29T04:11:14;100406.13;;;15.77;100.00
80566;BME280;69915;54.862;10.730;2023-07-29T04:13:40;100405.38;;;15.89;100.00
80566;BME280;69915;54.862;10.730;2023-07-29T04:16:05;100381.09;;;15.82;100.00
80566;BME280;69915;54.862;10.730;2023-07-29T04:18:31;100366.66;;;15.85;100.00
80566;BME280;69915;54.862;10.730;2023-07-29T04:20:56;100363.94;;;15.97;100.00
80566;BME280;69915;54.862;10.730;2023-07-29T04:23:22;100377.50;;;16.23;100.00
80566;BME280;69915;54.862;10.730;2023-07-29T04:25:48;100355.78;;;16.21;99.64
80566;BME280;69915;54.862;10.730;2023-07-29T04:28:15;100354.41;;;16.27;99.03
80566;BME280;69915;54.862;10.730;2023-07-29T04:30:40;100358.56;;;16.33;98.88
80566;BME280;69915;54.862;10.730;2023-07-29T04:33:06;100358.00;;;16.40;98.70
80566;BME280;69915;54.862;10.730;2023-07-29T04:35:31;100376.72;;;16.55;99.24
80566;BME280;69915;54.862;10.730;2023-07-29T04:37:57;100368.69;;;16.62;99.33
80566;BME280;69915;54.862;10.730;2023-07-29T04:40:22;100379.75;;;16.74;99.17
80566;BME280;69915;54.862;10.730;2023-07-29T04:42:48;100370.44;;;16.79;98.97
80566;BME280;69915;54.862;10.730;2023-07-29T04:45:14;100374.56;;;16.85;99.02
80566;BME280;69915;54.862;10.730;2023-07-29T04:47:39;100374.50;;;16.94;98.81
80566;BME280;69915;54.862;10.730;2023-07-29T04:50:05;100383.00;;;17.01;98.48
80566;BME280;69915;54.862;10.730;2023-07-29T04:52:31;100375.63;;;17.05;98.63
80566;BME280;69915;54.862;10.730;2023-07-29T04:54:57;100353.78;;;17.00;98.18
80566;BME280;69915;54.862;10.730;2023-07-29T04:57:22;100352.84;;;16.96;98.18
80566;BME280;69915;54.862;10.730;2023-07-29T04:59:47;100361.72;;;17.01;97.92
80566;BME280;69915;54.862;10.730;2023-07-29T05:02:13;100370.69;;;17.10;97.92
80566;BME280;69915;54.862;10.730;2023-07-29T05:04:38;100364.34;;;17.10;97.85
80566;BME280;69915;54.862;10.730;2023-07-29T05:07:04;100358.81;;;17.10;98.17
80566;BME280;69915;54.862;10.730;2023-07-29T05:09:29;100376.44;;;17.29;97.74
80566;BME280;69915;54.862;10.730;2023-07-29T05:11:55;100359.31;;;17.24;97.37
80566;BME280;69915;54.862;10.730;2023-07-29T05:14:20;100364.31;;;17.46;97.08
80566;BME280;69915;54.862;10.730;2023-07-29T05:16:46;100369.88;;;17.58;96.28
80566;BME280;69915;54.862;10.730;2023-07-29T05:19:11;100364.44;;;17.62;96.21
80566;BME280;69915;54.862;10.730;2023-07-29T05:21:37;100390.66;;;17.80;95.61
80566;BME280;69915;54.862;10.730;2023-07-29T05:24:03;100386.41;;;17.82;95.37
80566;BME280;69915;54.862;10.730;2023-07-29T05:26:29;100378.00;;;17.79;95.29
80566;BME280;69915;54.862;10.730;2023-07-29T05:28:54;100376.66;;;17.73;95.03
80566;BME280;69915;54.862;10.730;2023-07-29T05:31:20;100369.50;;;17.72;95.21
80566;BME280;69915;54.862;10.730;2023-07-29T05:33:45;100365.03;;;17.67;94.81
80566;BME280;69915;54.862;10.730;2023-07-29T05:36:11;100376.28;;;17.74;95.39
80566;BME280;69915;54.862;10.730;2023-07-29T05:38:36;100369.38;;;17.68;95.43
80566;BME280;69915;54.862;10.730;2023-07-29T05:41:02;100387.53;;;17.93;95.16
80566;BME280;69915;54.862;10.730;2023-07-29T05:43:27;100367.50;;;17.84;95.21
80566;BME280;69915;54.862;10.730;2023-07-29T05:45:53;100385.69;;;17.98;94.98
80566;BME280;69915;54.862;10.730;2023-07-29T05:48:21;100371.19;;;17.88;94.63
80566;BME280;69915;54.862;10.730;2023-07-29T05:50:47;100367.50;;;17.84;94.63
80566;BME280;69915;54.862;10.730;2023-07-29T05:53:14;100371.09;;;17.85;94.61
80566;BME280;69915;54.862;10.730;2023-07-29T05:55:39;100365.22;;;17.74;95.15
80566;BME280;69915;54.862;10.730;2023-07-29T05:58:05;100379.84;;;17.75;95.46
80566;BME280;69915;54.862;10.730;2023-07-29T06:00:31;100373.53;;;17.62;96.16
80566;BME280;69915;54.862;10.730;2023-07-29T06:02:56;100394.28;;;17.68;97.04
80566;BME280;69915;54.862;10.730;2023-07-29T06:05:22;100386.69;;;17.41;97.05
80566;BME280;69915;54.862;10.730;2023-07-29T06:07:47;100373.56;;;17.02;97.04
80566;BME280;69915;54.862;10.730;2023-07-29T06:10:14;100370.91;;;16.81;97.73
80566;BME280;69915;54.862;10.730;2023-07-29T06:12:44;100394.38;;;16.87;97.61
80566;BME280;69915;54.862;10.730;2023-07-29T06:15:09;100378.72;;;16.79;98.78
80566;BME280;69915;54.862;10.730;2023-07-29T06:17:35;100389.44;;;16.80;99.29
80566;BME280;69915;54.862;10.730;2023-07-29T06:20:01;100392.63;;;16.82;99.83
80566;BME280;69915;54.862;10.730;2023-07-29T06:22:26;100383.09;;;16.80;100.00
80566;BME280;69915;54.862;10.730;2023-07-29T06:24:52;100381.59;;;16.82;100.00
80566;BME280;69915;54.862;10.730;2023-07-29T06:27:17;100387.13;;;16.82;100.00
80566;BME280;69915;54.862;10.730;2023-07-29T06:29:43;100378.94;;;16.74;100.00
80566;BME280;69915;54.862;10.730;2023-07-29T06:32:08;100366.06;;;16.66;99.80
80566;BME280;69915;54.862;10.730;2023-07-29T06:34:34;100350.06;;;16.59;99.76
80566;BME280;69915;54.862;10.730;2023-07-29T06:36:59;100369.53;;;16.75;99.96
80566;BME280;69915;54.862;10.730;2023-07-29T06:39:25;100354.19;;;16.65;100.00
80566;BME280;69915;54.862;10.730;2023-07-29T06:41:50;100362.38;;;16.74;100.00
80566;BME280;69915;54.862;10.730;2023-07-29T06:44:16;100373.78;;;16.84;100.00
80566;BME280;69915;54.862;10.730;2023-07-29T06:46:41;100365.84;;;16.83;100.00
80566;BME280;69915;54.862;10.730;2023-07-29T06:49:07;100373.81;;;16.97;100.00
80566;BME280;69915;54.862;10.730;2023-07-29T06:51:32;100351.47;;;17.02;100.00
80566;BME280;69915;54.862;10.730;2023-07-29T06:54:00;100360.00;;;17.09;100.00
80566;BME280;69915;54.862;10.730;2023-07-29T06:56:26;100336.28;;;17.08;99.98
80566;BME280;69915;54.862;10.730;2023-07-29T06:58:51;100326.25;;;17.03;99.98
80566;BME280;69915;54.862;10.730;2023-07-29T07:01:17;100348.25;;;17.24;99.44
80566;BME280;69915;54.862;10.730;2023-07-29T07:03:42;100329.03;;;17.15;99.48
80566;BME280;69915;54.862;10.730;2023-07-29T07:06:08;100338.22;;;17.31;99.74
80566;BME280;69915;54.862;10.730;2023-07-29T07:08:55;100346.59;;;17.47;99.79
80566;BME280;69915;54.862;10.730;2023-07-29T07:11:24;100348.22;;;17.60;99.87
80566;BME280;69915;54.862;10.730;2023-07-29T07:13:49;100356.94;;;17.74;100.00
80566;BME280;69915;54.862;10.730;2023-07-29T07:16:15;100353.34;;;17.74;99.66
80566;BME280;69915;54.862;10.730;2023-07-29T07:18:40;100362.56;;;17.78;98.91
80566;BME280;69915;54.862;10.730;2023-07-29T07:21:06;100355.00;;;17.63;98.53
80566;BME280;69915;54.862;10.730;2023-07-29T07:23:31;100357.78;;;17.63;98.68
80566;BME280;69915;54.862;10.730;2023-07-29T07:25:57;100337.16;;;17.48;98.92
80566;BME280;69915;54.862;10.730;2023-07-29T07:28:22;100352.94;;;17.60;99.38
80566;BME280;69915;54.862;10.730;2023-07-29T07:30:48;100322.28;;;17.53;99.32
80566;BME280;69915;54.862;10.730;2023-07-29T07:33:13;100348.06;;;17.69;99.49
80566;BME280;69915;54.862;10.730;2023-07-29T07:35:39;100337.78;;;17.81;99.67
80566;BME280;69915;54.862;10.730;2023-07-29T07:38:04;100317.03;;;17.87;99.77
80566;BME280;69915;54.862;10.730;2023-07-29T07:40:33;100316.91;;;18.12;99.53
80566;BME280;69915;54.862;10.730;2023-07-29T07:42:58;100312.84;;;18.65;98.88
80566;BME280;69915;54.862;10.730;2023-07-29T07:45:24;100334.38;;;19.37;96.35
80566;BME280;69915;54.862;10.730;2023-07-29T07:47:51;100327.31;;;19.75;93.14
80566;BME280;69915;54.862;10.730;2023-07-29T07:50:17;100294.47;;;20.38;89.78
80566;BME280;69915;54.862;10.730;2023-07-29T07:52:43;100298.75;;;21.26;83.48
80566;BME280;69915;54.862;10.730;2023-07-29T07:55:08;100288.31;;;21.46;84.00
80566;BME280;69915;54.862;10.730;2023-07-29T07:57:34;100312.81;;;21.37;84.95
80566;BME280;69915;54.862;10.730;2023-07-29T07:59:59;100299.44;;;20.48;84.04
80566;BME280;69915;54.862;10.730;2023-07-29T08:02:25;100305.03;;;20.29;84.76
80566;BME280;69915;54.862;10.730;2023-07-29T08:04:50;100318.00;;;20.25;86.67
80566;BME280;69915;54.862;10.730;2023-07-29T08:07:15;100293.22;;;19.93;87.80
80566;BME280;69915;54.862;10.730;2023-07-29T08:09:41;100326.22;;;19.98;88.44
80566;BME280;69915;54.862;10.730;2023-07-29T08:12:07;100324.41;;;19.87;87.42
80566;BME280;69915;54.862;10.730;2023-07-29T08:14:32;100316.88;;;19.68;87.92
80566;BME280;69915;54.862;10.730;2023-07-29T08:16:58;100294.09;;;19.78;88.83
80566;BME280;69915;54.862;10.730;2023-07-29T08:19:23;100306.56;;;20.26;87.62
80566;BME280;69915;54.862;10.730;2023-07-29T08:21:49;100283.56;;;20.48;86.66
80566;BME280;69915;54.862;10.730;2023-07-29T08:24:14;100298.81;;;21.59;85.13
80566;BME280;69915;54.862;10.730;2023-07-29T08:26:40;100300.84;;;21.92;81.35
80566;BME280;69915;54.862;10.730;2023-07-29T08:29:05;100299.22;;;21.32;81.97
80566;BME280;69915;54.862;10.730;2023-07-29T08:31:31;100274.31;;;21.12;82.57
80566;BME280;69915;54.862;10.730;2023-07-29T08:33:59;100306.53;;;21.17;83.33
80566;BME280;69915;54.862;10.730;2023-07-29T08:36:24;100270.53;;;20.75;84.37
80566;BME280;69915;54.862;10.730;2023-07-29T08:38:50;100292.69;;;20.94;84.86
80566;BME280;69915;54.862;10.730;2023-07-29T08:41:25;100301.63;;;21.33;83.50
80566;BME280;69915;54.862;10.730;2023-07-29T08:43:56;100291.25;;;21.30;83.79
80566;BME280;69915;54.862;10.730;2023-07-29T08:46:25;100289.69;;;21.33;80.71
80566;BME280;69915;54.862;10.730;2023-07-29T08:48:51;100279.63;;;21.84;80.04
80566;BME280;69915;54.862;10.730;2023-07-29T08:51:18;100274.59;;;21.93;79.19
80566;BME280;69915;54.862;10.730;2023-07-29T08:53:45;100294.47;;;23.16;75.36
80566;BME280;69915;54.862;10.730;2023-07-29T08:56:11;100310.41;;;23.16;74.38
80566;BME280;69915;54.862;10.730;2023-07-29T08:58:37;100295.56;;;22.57;75.38
80566;BME280;69915;54.862;10.730;2023-07-29T09:01:03;100322.22;;;22.18;76.53
80566;BME280;69915;54.862;10.730;2023-07-29T09:03:28;100285.91;;;22.07;76.87
80566;BME280;69915;54.862;10.730;2023-07-29T09:05:55;100309.81;;;22.12;76.79
80566;BME280;69915;54.862;10.730;2023-07-29T09:08:23;100300.69;;;22.52;77.16
80566;BME280;69915;54.862;10.730;2023-07-29T09:10:49;100297.81;;;22.85;75.82
80566;BME280;69915;54.862;10.730;2023-07-29T09:13:14;100314.91;;;22.40;77.49
80566;BME280;69915;54.862;10.730;2023-07-29T09:15:40;100284.38;;;21.80;77.14
80566;BME280;69915;54.862;10.730;2023-07-29T09:18:12;100303.44;;;21.48;79.04
80566;BME280;69915;54.862;10.730;2023-07-29T09:20:39;100288.00;;;21.25;79.67
80566;BME280;69915;54.862;10.730;2023-07-29T09:23:07;100284.84;;;21.56;80.76
80566;BME280;69915;54.862;10.730;2023-07-29T09:25:34;100306.16;;;21.45;79.36
80566;BME280;69915;54.862;10.730;2023-07-29T09:28:00;100299.19;;;21.28;80.06
80566;BME280;69915;54.862;10.730;2023-07-29T09:30:26;100287.25;;;21.28;79.47
80566;BME280;69915;54.862;10.730;2023-07-29T09:32:56;100280.66;;;21.13;80.98
80566;BME280;69915;54.862;10.730;2023-07-29T09:35:22;100296.75;;;21.27;80.32
80566;BME280;69915;54.862;10.730;2023-07-29T09:37:50;100283.81;;;21.67;79.66
80566;BME280;69915;54.862;10.730;2023-07-29T09:40:17;100272.22;;;22.29;77.94
80566;BME280;69915;54.862;10.730;2023-07-29T09:42:59;100272.13;;;22.62;73.53
80566;BME280;69915;54.862;10.730;2023-07-29T09:45:25;100294.25;;;23.39;71.87
80566;BME280;69915;54.862;10.730;2023-07-29T09:47:53;100296.81;;;23.72;71.66
80566;BME280;69915;54.862;10.730;2023-07-29T09:50:23;100281.41;;;23.31;72.32
80566;BME280;69915;54.862;10.730;2023-07-29T09:52:50;100294.41;;;23.71;71.30
80566;BME280;69915;54.862;10.730;2023-07-29T09:55:21;100271.09;;;24.21;70.38
80566;BME280;69915;54.862;10.730;2023-07-29T09:57:47;100285.06;;;24.21;69.19
80566;BME280;69915;54.862;10.730;2023-07-29T10:00:13;100258.47;;;23.59;71.95
80566;BME280;69915;54.862;10.730;2023-07-29T10:02:42;100273.78;;;24.04;69.85
80566;BME280;69915;54.862;10.730;2023-07-29T10:05:09;100264.81;;;23.45;69.50
80566;BME280;69915;54.862;10.730;2023-07-29T10:07:39;100268.25;;;23.28;70.82
80566;BME280;69915;54.862;10.730;2023-07-29T10:10:06;100285.56;;;23.58;70.42
80566;BME280;69915;54.862;10.730;2023-07-29T10:12:33;100287.22;;;23.70;70.84
80566;BME280;69915;54.862;10.730;2023-07-29T10:15:03;100270.47;;;23.66;69.11
80566;BME280;69915;54.862;10.730;2023-07-29T10:17:30;100284.63;;;23.37;68.91
80566;BME280;69915;54.862;10.730;2023-07-29T10:19:57;100290.34;;;23.54;70.35
80566;BME280;69915;54.862;10.730;2023-07-29T10:22:28;100288.44;;;23.69;70.39
80566;BME280;69915;54.862;10.730;2023-07-29T10:25:03;100276.53;;;23.86;70.15
80566;BME280;69915;54.862;10.730;2023-07-29T10:27:38;100257.00;;;23.93;70.20
80566;BME280;69915;54.862;10.730;2023-07-29T10:30:07;100259.53;;;24.41;68.38
80566;BME280;69915;54.862;10.730;2023-07-29T10:32:32;100257.94;;;24.54;68.81
80566;BME280;69915;54.862;10.730;2023-07-29T10:34:59;100247.50;;;24.19;67.72
80566;BME280;69915;54.862;10.730;2023-07-29T10:37:24;100260.34;;;24.87;68.74
80566;BME280;69915;54.862;10.730;2023-07-29T10:39:54;100258.75;;;24.89;67.23
80566;BME280;69915;54.862;10.730;2023-07-29T10:42:20;100239.56;;;24.21;68.23
80566;BME280;69915;54.862;10.730;2023-07-29T10:44:47;100239.16;;;24.75;66.81
80566;BME280;69915;54.862;10.730;2023-07-29T10:47:21;100266.34;;;24.43;67.26
80566;BME280;69915;54.862;10.730;2023-07-29T10:49:49;100245.16;;;24.46;68.21
80566;BME280;69915;54.862;10.730;2023-07-29T10:52:16;100239.56;;;24.53;66.15
80566;BME280;69915;54.862;10.730;2023-07-29T10:54:47;100255.94;;;25.07;65.26
80566;BME280;69915;54.862;10.730;2023-07-29T10:57:30;100259.09;;;25.23;64.40
80566;BME280;69915;54.862;10.730;2023-07-29T10:59:56;100251.50;;;25.38;64.36
80566;BME280;69915;54.862;10.730;2023-07-29T11:02:28;100239.19;;;24.93;64.29
80566;BME280;69915;54.862;10.730;2023-07-29T11:04:54;100229.13;;;25.20;64.57
80566;BME280;69915;54.862;10.730;2023-07-29T11:07:21;100239.50;;;25.34;64.88
80566;BME280;69915;54.862;10.730;2023-07-29T11:10:03;100249.09;;;25.26;64.12
80566;BME280;69915;54.862;10.730;2023-07-29T11:12:48;100248.22;;;25.64;64.90
80566;BME280;69915;54.862;10.730;2023-07-29T11:15:17;100246.59;;;25.63;62.36
80566;BME280;69915;54.862;10.730;2023-07-29T11:17:50;100240.25;;;25.41;62.09
80566;BME280;69915;54.862;10.730;2023-07-29T11:20:19;100236.28;;;25.35;62.18
80566;BME280;69915;54.862;10.730;2023-07-29T11:22:44;100225.56;;;25.06;63.65
80566;BME280;69915;54.862;10.730;2023-07-29T11:25:12;100225.94;;;25.25;63.48
80566;BME280;69915;54.862;10.730;2023-07-29T11:27:38;100225.88;;;25.32;63.56
80566;BME280;69915;54.862;10.730;2023-07-29T11:30:06;100223.13;;;25.25;64.27
80566;BME280;69915;54.862;10.730;2023-07-29T11:32:32;100236.28;;;25.50;64.35
80566;BME280;69915;54.862;10.730;2023-07-29T11:35:06;100219.09;;;25.40;62.26
80566;BME280;69915;54.862;10.730;2023-07-29T11:37:40;100232.75;;;25.14;63.50
80566;BME280;69915;54.862;10.730;2023-07-29T11:40:06;100227.38;;;25.69;62.27
80566;BME280;69915;54.862;10.730;2023-07-29T11:42:33;100227.31;;;25.86;62.02
80566;BME280;69915;54.862;10.730;2023-07-29T11:45:00;100224.88;;;25.92;62.18
80566;BME280;69915;54.862;10.730;2023-07-29T11:47:26;100214.81;;;25.98;62.34
80566;BME280;69915;54.862;10.730;2023-07-29T11:49:52;100224.84;;;25.99;60.44
80566;BME280;69915;54.862;10.730;2023-07-29T11:52:18;100202.25;;;25.51;60.11
80566;BME280;69915;54.862;10.730;2023-07-29T11:54:47;100195.84;;;25.58;60.84
80566;BME280;69915;54.862;10.730;2023-07-29T11:57:13;100221.03;;;25.61;63.48
80566;BME280;69915;54.862;10.730;2023-07-29T11:59:41;100197.03;;;25.57;62.42
80566;BME280;69915;54.862;10.730;2023-07-29T12:02:12;100225.34;;;25.80;61.63
80566;BME280;69915;54.862;10.730;2023-07-29T12:04:39;100219.25;;;25.95;61.62
80566;BME280;69915;54.862;10.730;2023-07-29T12:07:05;100196.22;;;25.63;60.87
80566;BME280;69915;54.862;10.730;2023-07-29T12:09:31;100216.28;;;25.40;61.30
80566;BME280;69915;54.862;10.730;2023-07-29T12:11:57;100214.03;;;24.82;62.47
80566;BME280;69915;54.862;10.730;2023-07-29T12:14:26;100211.63;;;24.46;63.86
80566;BME280;69915;54.862;10.730;2023-07-29T12:16:52;100196.03;;;24.16;65.12
80566;BME280;69915;54.862;10.730;2023-07-29T12:19:19;100196.44;;;24.47;64.94
80566;BME280;69915;54.862;10.730;2023-07-29T12:21:45;100204.44;;;24.45;64.85
80566;BME280;69915;54.862;10.730;2023-07-29T12:24:13;100205.13;;;23.92;65.49
80566;BME280;69915;54.862;10.730;2023-07-29T12:26:40;100214.81;;;24.26;65.44
80566;BME280;69915;54.862;10.730;2023-07-29T12:31:38;100220.00;;;24.77;64.79
80566;BME280;69915;54.862;10.730;2023-07-29T12:34:04;100221.09;;;25.33;63.54
80566;BME280;69915;54.862;10.730;2023-07-29T12:36:48;100229.44;;;25.58;61.71
80566;BME280;69915;54.862;10.730;2023-07-29T12:41:42;100221.53;;;26.18;60.41
80566;BME280;69915;54.862;10.730;2023-07-29T12:44:08;100220.31;;;26.71;57.30
80566;BME280;69915;54.862;10.730;2023-07-29T12:46:33;100217.97;;;26.66;58.82